Pagina principale
METAR-TAF:

METAR-TAF

Aeroporti :

Genova, Italia

Aeroporto di Genova-Sestri

latitudine: 44-25N, longitudine: 008-51E, altezza: 2 m

Osservazione

Il bollettino è stato emesso 35 minuti fa, alle 23:20 UTC
Vento 4 kt da nord/nord-est
Temperature 10°C
Umidità 82%
Pressione 1034 hPa
Visibilità 10 km o più
Nubi sparse ad un'altezza di 2800 ft

METAR: LIMJ 082320Z 03004KT 9999 SCT028 10/07 Q1034

Ora: 00:55 (23:55 UTC)

Previsione

Il bollettino è stato emesso 55 minuti fa, alle 23:00 UTC
Previsione valida dal 09 alle 00 UTC al 09 alle 24 UTC
Vento 5 kt da direzioni variabili
Visibilità 10 km o più
nessuna nube inferiore a 1500 m e nessun cumulonembo

TAF: LIMJ 082300Z 0900/0924 VRB05KT CAVOK

Osservazioni e previsioni meteorologiche di più di 4000 aeroporti (messaggi METAR e TAF).

Le stazioni disponibili sono rappresentate dai dischi gialli e rossi sulla carta.

Puntare il mouse per vedere il nome della stazione.

Clicca sopra per visualizzare le osservazioni e previsioni meteorologiche.

Per cambiare la mappa : fare clic sui pulsanti verdi con una croce nera per ingrandire, il pulsante verde con un trattino per diminuire, o sulla freccia verde per le mappe adiacenti.


METAR-TAF: